AirNav   Air Wisconsin Up To $57,000 Bonus
 
 411 users online  

MD1 Massey Aerodrome
Massey, Maryland, USA

GOING TO MASSEY?


FAA INFORMATION EFFECTIVE 16 JUNE 2022

Location

FAA Identifier: MD1
Lat/Long: 39-17-57.7000N 075-47-57.8000W
39-17.961667N 075-47.963333W
39.2993611,-75.7993889
(estimated)
Elevation: 73 ft. / 22 m (estimated)
Variation: 12W (2000)
From city: 2 miles E of MASSEY, MD
Time zone: UTC -4 (UTC -5 during Standard Time)
Zip code: 21650

Airport Operations

Airport use: Open to the public
Activation date: 01/2002
Control tower: no
ARTCC: NEW YORK CENTER
FSS: LEESBURG FLIGHT SERVICE STATION
NOTAMs facility: DCA (NOTAM-D service available)
Attendance: 1000-1700
Wind indicator: yes
Segmented circle: no

Airport Communications

CTAF: 122.9
WX AWOS-3 at 33N (10 nm SE): 120.125 (302-735-9754)
WX AWOS-3 at EVY (14 nm N): 132.325 (302-378-2063)

Airport Services

Parking: tiedowns

Runway Information

Runway 2/20

Dimensions: 3000 x 100 ft. / 914 x 30 m
Surface: turf, in good condition
Runway edge markings: RWY 20 DSPLCD THR MARKED WITH 3 WHITE CONES ON BOTH SIDES.
RUNWAY 2  RUNWAY 20
Latitude: 39-17.721833N39-18.200500N
Longitude: 075-48.042333W075-47.883333W
Traffic pattern: leftleft
Displaced threshold: no120 ft.
Markings: numbers only, in good conditionnumbers only, in good condition
Obstructions: 64 ft. trees, 1822 ft. from runway, 143 ft. right of centerline, 28:1 slope to clear28 ft. trees, 240 ft. from runway, 8:1 slope to clear
APCH RATIO 20:1 TO DSPLCD THLR.

Airport Ownership and Management from official FAA records

Ownership: Privately-owned
Owner: MASSEY AERO LLC
33541 MARYLAND LINE RD
MASSEY, MD 21650
Phone 410-928-5270
Manager: JOHN WILLIAMSON
33541 MARYLAND LINE RD
MASSEY, MD 21650
Phone 410-928-5270

Airport Operational Statistics

Aircraft based on the field: 35
Single engine airplanes: 24
Gliders airplanes: 11
    
Aircraft operations: avg 99/week *
70% local general aviation
23% transient general aviation
7% military
* for 12-month period ending 24 September 2021

Additional Remarks

GLIDERS, HANG-GLIDERS, POWERED PRCHTS, ULTRALIGHT ACT, ON AND INVOF AIRPORT.
RWY THR AND SIDES MARKED WITH WHITE CONES.
FOR CD CTC PHILADELPHIA APCH AT 800-354-9884.

Instrument Procedures

There are no published instrument procedures at MD1.

Some nearby airports with instrument procedures:

33N - Delaware Airpark (10 nm SE)
KEVY - Summit Airport (14 nm N)
58M - Claremont Airport (17 nm N)
KDOV - Dover Air Force Base (19 nm SE)
KAPG - Phillips Army Airfield (20 nm NW)
KRJD - Gooden Airpark (20 nm S)
 
Loc | Ops | Rwys | IFR | FBO | Links
Com | Nav | Svcs | Stats | Notes
Area around MD1 (Massey Aerodrome)
 
Road maps at: MapQuest Bing Google
 
Aerial photo
WARNING: Photo may not be current or correct
Aerial photo of MD1 (Massey Aerodrome)
Photo taken 16-Sep-2016
looking north.

Do you have a better or more recent aerial photo of Massey Aerodrome that you would like to share? If so, please send us your photo.

 
Sectional chart

 
Airport distance calculator
Flying to Massey Aerodrome? Find the distance to fly.

From to MD1

Sunrise and sunset
Times for 25-Jun-2022
 Local
(UTC-4)
 Zulu
(UTC)
Morning civil twilight05:0609:06
Sunrise05:3909:39
Sunset20:3300:33
Evening civil twilight21:0501:05

Current date and time
Zulu (UTC)  25-Jun-2022 09:13:35
Local (UTC-4)  25-Jun-2022 05:13:35
 
METAR
K33N 
10nm SE 
250855Z AUTO 00000KT 9SM FEW050 18/18 A3011 RMK A01
KAPG 
16nm NW 
242119Z 13005KT 10SM BKN035 26/19 A3001 RMK LAST SLP165
KDOV 
19nm SE 
250856Z AUTO 21004KT 10SM CLR 18/18 A3010 RMK AO2 SLP196 T01840184 51006 $
TAF
KDOV 
19nm SE 
250000Z 2500/2606 20009KT 9999 FEW020 QNH3004INS TEMPO 2506/2512 6000 BR TX31/2521Z TN18/2509Z
NOTAMs
Click for the latest NOTAMs
NOTAMs are issued by the DoD/FAA and will open in a separate window not controlled by AirNav.

 

 
 

Would you like to see your business listed on this page?

 If your business provides an interesting product or service to pilots, flight crews, aircraft, or users of the Massey Aerodrome, you should consider listing it here.  To start the listing process, click on the button below
 
Add a business
 

Other Pages about Massey Aerodrome

Update a link
 
Copyright © AirNav, LLC. All rights reserved. Privacy Policy  Contact